sensor_id;sensor_type;location;lat;lon;timestamp;temperature;humidity
11836;DHT22;5977;51.972;7.640;2023-05-10T00:00:13;20.30;93.20
11836;DHT22;5977;51.972;7.640;2023-05-10T00:02:42;20.30;93.20
11836;DHT22;5977;51.972;7.640;2023-05-10T00:05:10;20.30;93.10
11836;DHT22;5977;51.972;7.640;2023-05-10T00:07:38;20.30;93.10
11836;DHT22;5977;51.972;7.640;2023-05-10T00:10:06;20.30;93.10
11836;DHT22;5977;51.972;7.640;2023-05-10T00:12:34;20.30;93.20
11836;DHT22;5977;51.972;7.640;2023-05-10T00:15:02;20.30;93.20
11836;DHT22;5977;51.972;7.640;2023-05-10T00:17:32;20.20;93.50
11836;DHT22;5977;51.972;7.640;2023-05-10T00:20:00;20.30;93.10
11836;DHT22;5977;51.972;7.640;2023-05-10T00:22:28;20.30;93.10
11836;DHT22;5977;51.972;7.640;2023-05-10T00:24:55;20.30;93.20
11836;DHT22;5977;51.972;7.640;2023-05-10T00:27:23;20.30;93.10
11836;DHT22;5977;51.972;7.640;2023-05-10T00:29:51;20.30;93.10
11836;DHT22;5977;51.972;7.640;2023-05-10T00:32:19;20.30;93.10
11836;DHT22;5977;51.972;7.640;2023-05-10T00:34:48;20.30;93.10
11836;DHT22;5977;51.972;7.640;2023-05-10T00:37:17;20.20;93.20
11836;DHT22;5977;51.972;7.640;2023-05-10T00:39:45;20.20;93.20
11836;DHT22;5977;51.972;7.640;2023-05-10T00:42:12;20.20;93.20
11836;DHT22;5977;51.972;7.640;2023-05-10T00:44:41;20.20;93.20
11836;DHT22;5977;51.972;7.640;2023-05-10T00:47:10;20.20;93.20
11836;DHT22;5977;51.972;7.640;2023-05-10T00:49:38;20.20;93.30
11836;DHT22;5977;51.972;7.640;2023-05-10T00:52:08;20.20;93.20
11836;DHT22;5977;51.972;7.640;2023-05-10T00:54:36;20.20;93.10
11836;DHT22;5977;51.972;7.640;2023-05-10T00:57:04;20.20;93.10
11836;DHT22;5977;51.972;7.640;2023-05-10T00:59:32;20.20;93.00
11836;DHT22;5977;51.972;7.640;2023-05-10T01:02:00;20.20;93.30
11836;DHT22;5977;51.972;7.640;2023-05-10T01:04:29;20.20;92.90
11836;DHT22;5977;51.972;7.640;2023-05-10T01:06:57;20.20;92.90
11836;DHT22;5977;51.972;7.640;2023-05-10T01:09:27;20.20;92.80
11836;DHT22;5977;51.972;7.640;2023-05-10T01:11:56;20.20;92.80
11836;DHT22;5977;51.972;7.640;2023-05-10T01:14:25;20.20;92.80
11836;DHT22;5977;51.972;7.640;2023-05-10T01:16:55;20.20;92.80
11836;DHT22;5977;51.972;7.640;2023-05-10T01:19:26;20.20;92.80
11836;DHT22;5977;51.972;7.640;2023-05-10T01:22:11;20.20;92.80
11836;DHT22;5977;51.972;7.640;2023-05-10T01:25:02;20.20;92.60
11836;DHT22;5977;51.972;7.640;2023-05-10T01:28:03;20.20;92.70
11836;DHT22;5977;51.972;7.640;2023-05-10T01:31:06;20.20;92.70
11836;DHT22;5977;51.972;7.640;2023-05-10T01:33:40;20.20;92.60
11836;DHT22;5977;51.972;7.640;2023-05-10T01:36:19;20.10;92.50
11836;DHT22;5977;51.972;7.640;2023-05-10T01:38:59;20.20;92.50
11836;DHT22;5977;51.972;7.640;2023-05-10T01:41:36;20.20;92.50
11836;DHT22;5977;51.972;7.640;2023-05-10T01:44:14;20.20;92.40
11836;DHT22;5977;51.972;7.640;2023-05-10T01:46:50;20.20;92.30
11836;DHT22;5977;51.972;7.640;2023-05-10T01:49:25;20.20;92.30
11836;DHT22;5977;51.972;7.640;2023-05-10T01:51:59;20.20;92.20
11836;DHT22;5977;51.972;7.640;2023-05-10T01:54:28;20.20;92.30
11836;DHT22;5977;51.972;7.640;2023-05-10T01:57:01;20.10;92.40
11836;DHT22;5977;51.972;7.640;2023-05-10T01:59:34;20.00;92.40
11836;DHT22;5977;51.972;7.640;2023-05-10T02:02:04;20.00;92.60
11836;DHT22;5977;51.972;7.640;2023-05-10T02:04:35;19.90;93.00
11836;DHT22;5977;51.972;7.640;2023-05-10T02:07:05;20.00;92.80
11836;DHT22;5977;51.972;7.640;2023-05-10T02:09:33;20.00;92.50
11836;DHT22;5977;51.972;7.640;2023-05-10T02:12:03;20.00;92.60
11836;DHT22;5977;51.972;7.640;2023-05-10T02:14:36;20.00;92.50
11836;DHT22;5977;51.972;7.640;2023-05-10T02:17:05;20.10;92.60
11836;DHT22;5977;51.972;7.640;2023-05-10T02:19:37;20.00;92.50
11836;DHT22;5977;51.972;7.640;2023-05-10T02:22:06;20.10;92.40
11836;DHT22;5977;51.972;7.640;2023-05-10T02:24:36;20.10;92.30
11836;DHT22;5977;51.972;7.640;2023-05-10T02:27:06;20.00;92.30
11836;DHT22;5977;51.972;7.640;2023-05-10T02:29:35;20.00;92.40
11836;DHT22;5977;51.972;7.640;2023-05-10T02:32:04;20.10;92.20
11836;DHT22;5977;51.972;7.640;2023-05-10T02:34:34;20.10;92.30
11836;DHT22;5977;51.972;7.640;2023-05-10T02:37:03;20.10;92.30
11836;DHT22;5977;51.972;7.640;2023-05-10T02:39:32;20.00;92.20
11836;DHT22;5977;51.972;7.640;2023-05-10T02:42:00;20.10;92.10
11836;DHT22;5977;51.972;7.640;2023-05-10T02:44:29;20.10;92.10
11836;DHT22;5977;51.972;7.640;2023-05-10T02:46:57;20.10;91.90
11836;DHT22;5977;51.972;7.640;2023-05-10T02:49:27;20.10;91.90
11836;DHT22;5977;51.972;7.640;2023-05-10T02:52:00;20.00;91.90
11836;DHT22;5977;51.972;7.640;2023-05-10T02:54:33;20.00;92.00
11836;DHT22;5977;51.972;7.640;2023-05-10T02:57:04;20.00;92.00
11836;DHT22;5977;51.972;7.640;2023-05-10T02:59:33;20.00;92.10
11836;DHT22;5977;51.972;7.640;2023-05-10T03:02:02;20.00;91.90
11836;DHT22;5977;51.972;7.640;2023-05-10T03:04:30;20.00;91.80
11836;DHT22;5977;51.972;7.640;2023-05-10T03:06:59;20.00;92.00
11836;DHT22;5977;51.972;7.640;2023-05-10T03:09:28;20.00;92.00
11836;DHT22;5977;51.972;7.640;2023-05-10T03:12:02;20.00;92.00
11836;DHT22;5977;51.972;7.640;2023-05-10T03:14:44;20.10;91.80
11836;DHT22;5977;51.972;7.640;2023-05-10T03:17:18;20.00;91.90
11836;DHT22;5977;51.972;7.640;2023-05-10T03:19:54;20.10;91.70
11836;DHT22;5977;51.972;7.640;2023-05-10T03:22:26;20.10;91.70
11836;DHT22;5977;51.972;7.640;2023-05-10T03:24:56;20.10;91.60
11836;DHT22;5977;51.972;7.640;2023-05-10T03:27:29;20.10;91.50
11836;DHT22;5977;51.972;7.640;2023-05-10T03:30:00;20.10;91.60
11836;DHT22;5977;51.972;7.640;2023-05-10T03:32:36;20.10;91.50
11836;DHT22;5977;51.972;7.640;2023-05-10T03:35:07;20.10;91.40
11836;DHT22;5977;51.972;7.640;2023-05-10T03:37:38;20.10;91.40
11836;DHT22;5977;51.972;7.640;2023-05-10T03:40:07;20.00;91.50
11836;DHT22;5977;51.972;7.640;2023-05-10T03:42:37;20.10;91.50
11836;DHT22;5977;51.972;7.640;2023-05-10T03:45:06;20.10;91.40
11836;DHT22;5977;51.972;7.640;2023-05-10T03:47:37;20.10;91.30
11836;DHT22;5977;51.972;7.640;2023-05-10T03:50:09;20.10;91.30
11836;DHT22;5977;51.972;7.640;2023-05-10T03:52:39;20.10;91.40
11836;DHT22;5977;51.972;7.640;2023-05-10T03:55:08;20.10;91.40
11836;DHT22;5977;51.972;7.640;2023-05-10T03:57:37;20.10;91.30
11836;DHT22;5977;51.972;7.640;2023-05-10T04:00:06;20.10;91.30
11836;DHT22;5977;51.972;7.640;2023-05-10T04:02:40;20.10;91.20
11836;DHT22;5977;51.972;7.640;2023-05-10T04:05:15;20.10;91.30
11836;DHT22;5977;51.972;7.640;2023-05-10T04:07:44;20.10;91.20
11836;DHT22;5977;51.972;7.640;2023-05-10T04:10:13;20.10;91.30
11836;DHT22;5977;51.972;7.640;2023-05-10T04:12:43;20.10;91.20
11836;DHT22;5977;51.972;7.640;2023-05-10T04:15:11;20.10;91.10
11836;DHT22;5977;51.972;7.640;2023-05-10T04:17:39;20.00;91.30
11836;DHT22;5977;51.972;7.640;2023-05-10T04:20:07;20.00;91.30
11836;DHT22;5977;51.972;7.640;2023-05-10T04:22:35;20.10;91.30
11836;DHT22;5977;51.972;7.640;2023-05-10T04:25:06;20.10;91.20
11836;DHT22;5977;51.972;7.640;2023-05-10T04:27:34;20.10;91.20
11836;DHT22;5977;51.972;7.640;2023-05-10T04:30:02;20.10;91.20
11836;DHT22;5977;51.972;7.640;2023-05-10T04:32:30;20.10;91.10
11836;DHT22;5977;51.972;7.640;2023-05-10T04:34:58;20.10;91.10
11836;DHT22;5977;51.972;7.640;2023-05-10T04:37:25;20.10;91.10
11836;DHT22;5977;51.972;7.640;2023-05-10T04:39:53;20.10;91.10
11836;DHT22;5977;51.972;7.640;2023-05-10T04:42:23;20.10;91.10
11836;DHT22;5977;51.972;7.640;2023-05-10T04:44:50;20.10;91.20
11836;DHT22;5977;51.972;7.640;2023-05-10T04:47:18;20.10;91.10
11836;DHT22;5977;51.972;7.640;2023-05-10T04:49:46;20.00;91.10
11836;DHT22;5977;51.972;7.640;2023-05-10T04:52:14;20.00;91.20
11836;DHT22;5977;51.972;7.640;2023-05-10T04:54:43;20.10;91.10
11836;DHT22;5977;51.972;7.640;2023-05-10T04:57:11;20.10;91.10
11836;DHT22;5977;51.972;7.640;2023-05-10T04:59:41;20.10;91.10
11836;DHT22;5977;51.972;7.640;2023-05-10T05:02:09;20.10;91.40
11836;DHT22;5977;51.972;7.640;2023-05-10T05:04:36;20.10;91.10
11836;DHT22;5977;51.972;7.640;2023-05-10T05:07:04;20.10;91.10
11836;DHT22;5977;51.972;7.640;2023-05-10T05:09:32;20.10;91.10
11836;DHT22;5977;51.972;7.640;2023-05-10T05:12:00;20.10;91.10
11836;DHT22;5977;51.972;7.640;2023-05-10T05:14:28;20.10;91.10
11836;DHT22;5977;51.972;7.640;2023-05-10T05:16:57;20.10;91.10
11836;DHT22;5977;51.972;7.640;2023-05-10T05:19:26;20.10;91.10
11836;DHT22;5977;51.972;7.640;2023-05-10T05:21:54;20.00;91.10
11836;DHT22;5977;51.972;7.640;2023-05-10T05:24:22;20.00;91.10
11836;DHT22;5977;51.972;7.640;2023-05-10T05:26:49;20.10;91.10
11836;DHT22;5977;51.972;7.640;2023-05-10T05:29:17;20.10;91.00
11836;DHT22;5977;51.972;7.640;2023-05-10T05:31:45;20.10;91.00
11836;DHT22;5977;51.972;7.640;2023-05-10T05:34:14;20.10;90.90
11836;DHT22;5977;51.972;7.640;2023-05-10T05:36:42;20.00;91.10
11836;DHT22;5977;51.972;7.640;2023-05-10T05:39:10;20.10;91.10
11836;DHT22;5977;51.972;7.640;2023-05-10T05:41:38;20.10;91.10
11836;DHT22;5977;51.972;7.640;2023-05-10T05:44:06;20.10;91.00
11836;DHT22;5977;51.972;7.640;2023-05-10T05:46:34;20.10;91.00
11836;DHT22;5977;51.972;7.640;2023-05-10T05:49:02;20.10;90.90
11836;DHT22;5977;51.972;7.640;2023-05-10T05:51:31;20.10;91.00
11836;DHT22;5977;51.972;7.640;2023-05-10T05:53:59;20.10;91.00
11836;DHT22;5977;51.972;7.640;2023-05-10T05:56:27;20.10;91.00
11836;DHT22;5977;51.972;7.640;2023-05-10T05:58:55;20.10;90.90
11836;DHT22;5977;51.972;7.640;2023-05-10T06:01:22;20.00;90.90
11836;DHT22;5977;51.972;7.640;2023-05-10T06:03:50;19.90;90.90
11836;DHT22;5977;51.972;7.640;2023-05-10T06:06:19;19.60;92.20
11836;DHT22;5977;51.972;7.640;2023-05-10T06:08:48;19.50;92.60
11836;DHT22;5977;51.972;7.640;2023-05-10T06:11:16;19.40;93.20
11836;DHT22;5977;51.972;7.640;2023-05-10T06:13:44;19.30;93.60
11836;DHT22;5977;51.972;7.640;2023-05-10T06:16:12;19.20;94.30
11836;DHT22;5977;51.972;7.640;2023-05-10T06:18:40;19.10;94.40
11836;DHT22;5977;51.972;7.640;2023-05-10T06:21:08;19.00;95.40
11836;DHT22;5977;51.972;7.640;2023-05-10T06:23:36;19.00;95.40
11836;DHT22;5977;51.972;7.640;2023-05-10T06:26:05;19.10;95.10
11836;DHT22;5977;51.972;7.640;2023-05-10T06:28:33;19.10;95.10
11836;DHT22;5977;51.972;7.640;2023-05-10T06:31:03;19.10;95.60
11836;DHT22;5977;51.972;7.640;2023-05-10T06:33:31;19.00;95.90
11836;DHT22;5977;51.972;7.640;2023-05-10T06:35:59;19.00;95.90
11836;DHT22;5977;51.972;7.640;2023-05-10T06:38:27;18.90;96.10
11836;DHT22;5977;51.972;7.640;2023-05-10T06:40:55;19.00;95.90
11836;DHT22;5977;51.972;7.640;2023-05-10T06:43:25;19.10;96.00
11836;DHT22;5977;51.972;7.640;2023-05-10T06:45:52;19.10;96.40
11836;DHT22;5977;51.972;7.640;2023-05-10T06:48:20;19.00;96.50
11836;DHT22;5977;51.972;7.640;2023-05-10T06:50:48;19.00;96.20
11836;DHT22;5977;51.972;7.640;2023-05-10T06:53:17;19.00;96.50
11836;DHT22;5977;51.972;7.640;2023-05-10T06:55:45;18.90;96.90
11836;DHT22;5977;51.972;7.640;2023-05-10T06:58:13;18.90;97.40
11836;DHT22;5977;51.972;7.640;2023-05-10T07:00:42;18.90;97.20
11836;DHT22;5977;51.972;7.640;2023-05-10T07:03:12;18.80;97.80
11836;DHT22;5977;51.972;7.640;2023-05-10T07:05:39;18.80;98.10
11836;DHT22;5977;51.972;7.640;2023-05-10T07:08:07;18.80;98.30
11836;DHT22;5977;51.972;7.640;2023-05-10T07:10:36;18.90;97.60
11836;DHT22;5977;51.972;7.640;2023-05-10T07:13:03;18.90;97.80
11836;DHT22;5977;51.972;7.640;2023-05-10T07:15:31;18.90;98.30
11836;DHT22;5977;51.972;7.640;2023-05-10T07:18:01;18.90;98.40
11836;DHT22;5977;51.972;7.640;2023-05-10T07:20:31;19.10;97.30
11836;DHT22;5977;51.972;7.640;2023-05-10T07:22:58;19.30;96.30
11836;DHT22;5977;51.972;7.640;2023-05-10T07:25:26;19.30;96.50
11836;DHT22;5977;51.972;7.640;2023-05-10T07:27:54;19.30;96.60
11836;DHT22;5977;51.972;7.640;2023-05-10T07:30:22;19.30;96.90
11836;DHT22;5977;51.972;7.640;2023-05-10T07:32:51;19.50;95.70
11836;DHT22;5977;51.972;7.640;2023-05-10T07:35:20;19.50;95.30
11836;DHT22;5977;51.972;7.640;2023-05-10T07:37:48;19.50;94.80
11836;DHT22;5977;51.972;7.640;2023-05-10T07:40:16;19.50;94.90
11836;DHT22;5977;51.972;7.640;2023-05-10T07:42:44;19.50;95.20
11836;DHT22;5977;51.972;7.640;2023-05-10T07:45:12;19.50;96.10
11836;DHT22;5977;51.972;7.640;2023-05-10T07:47:40;19.50;96.40
11836;DHT22;5977;51.972;7.640;2023-05-10T07:50:08;19.60;95.80
11836;DHT22;5977;51.972;7.640;2023-05-10T07:52:38;19.60;95.70
11836;DHT22;5977;51.972;7.640;2023-05-10T07:55:07;19.60;95.30
11836;DHT22;5977;51.972;7.640;2023-05-10T07:57:35;20.10;94.00
11836;DHT22;5977;51.972;7.640;2023-05-10T08:00:03;20.30;92.80
11836;DHT22;5977;51.972;7.640;2023-05-10T08:02:38;20.60;92.50
11836;DHT22;5977;51.972;7.640;2023-05-10T08:05:07;20.60;91.70
11836;DHT22;5977;51.972;7.640;2023-05-10T08:07:35;20.60;91.60
11836;DHT22;5977;51.972;7.640;2023-05-10T08:10:05;20.50;91.50
11836;DHT22;5977;51.972;7.640;2023-05-10T08:12:33;20.60;91.30
11836;DHT22;5977;51.972;7.640;2023-05-10T08:15:01;20.60;91.10
11836;DHT22;5977;51.972;7.640;2023-05-10T08:17:29;20.70;91.50
11836;DHT22;5977;51.972;7.640;2023-05-10T08:19:57;20.90;91.20
11836;DHT22;5977;51.972;7.640;2023-05-10T08:22:25;20.80;91.20
11836;DHT22;5977;51.972;7.640;2023-05-10T08:24:53;20.70;91.30
11836;DHT22;5977;51.972;7.640;2023-05-10T08:27:23;21.00;91.80
11836;DHT22;5977;51.972;7.640;2023-05-10T08:29:51;21.30;90.50
11836;DHT22;5977;51.972;7.640;2023-05-10T08:32:18;21.50;90.10
11836;DHT22;5977;51.972;7.640;2023-05-10T08:34:46;21.30;88.70
11836;DHT22;5977;51.972;7.640;2023-05-10T08:37:14;21.10;90.80
11836;DHT22;5977;51.972;7.640;2023-05-10T08:39:43;20.80;90.10
11836;DHT22;5977;51.972;7.640;2023-05-10T08:42:12;20.70;90.10
11836;DHT22;5977;51.972;7.640;2023-05-10T08:44:45;20.80;90.70
11836;DHT22;5977;51.972;7.640;2023-05-10T08:47:16;20.70;90.80
11836;DHT22;5977;51.972;7.640;2023-05-10T08:49:47;20.80;90.90
11836;DHT22;5977;51.972;7.640;2023-05-10T08:52:16;20.90;90.80
11836;DHT22;5977;51.972;7.640;2023-05-10T08:54:44;20.70;90.30
11836;DHT22;5977;51.972;7.640;2023-05-10T08:57:12;20.60;90.60
11836;DHT22;5977;51.972;7.640;2023-05-10T08:59:41;20.70;90.30
11836;DHT22;5977;51.972;7.640;2023-05-10T09:02:11;20.80;90.10
11836;DHT22;5977;51.972;7.640;2023-05-10T09:04:44;20.80;89.40
11836;DHT22;5977;51.972;7.640;2023-05-10T09:07:12;20.90;89.00
11836;DHT22;5977;51.972;7.640;2023-05-10T09:09:40;21.00;89.00
11836;DHT22;5977;51.972;7.640;2023-05-10T09:12:09;21.10;87.60
11836;DHT22;5977;51.972;7.640;2023-05-10T09:14:38;21.20;87.20
11836;DHT22;5977;51.972;7.640;2023-05-10T09:17:07;21.20;86.70
11836;DHT22;5977;51.972;7.640;2023-05-10T09:19:36;21.20;86.90
11836;DHT22;5977;51.972;7.640;2023-05-10T09:22:04;21.20;86.90
11836;DHT22;5977;51.972;7.640;2023-05-10T09:24:32;21.30;85.80
11836;DHT22;5977;51.972;7.640;2023-05-10T09:27:01;21.30;86.00
11836;DHT22;5977;51.972;7.640;2023-05-10T09:29:39;21.20;85.50
11836;DHT22;5977;51.972;7.640;2023-05-10T09:32:07;21.20;86.90
11836;DHT22;5977;51.972;7.640;2023-05-10T09:34:36;21.00;87.00
11836;DHT22;5977;51.972;7.640;2023-05-10T09:37:06;20.90;86.70
11836;DHT22;5977;51.972;7.640;2023-05-10T09:39:35;20.80;87.10
11836;DHT22;5977;51.972;7.640;2023-05-10T09:42:05;20.70;87.10
11836;DHT22;5977;51.972;7.640;2023-05-10T09:44:33;20.60;87.00
11836;DHT22;5977;51.972;7.640;2023-05-10T09:47:02;20.70;88.10
11836;DHT22;5977;51.972;7.640;2023-05-10T09:49:32;20.80;87.40
11836;DHT22;5977;51.972;7.640;2023-05-10T09:52:03;20.90;87.50
11836;DHT22;5977;51.972;7.640;2023-05-10T09:54:31;20.90;86.40
11836;DHT22;5977;51.972;7.640;2023-05-10T09:57:00;20.80;86.80
11836;DHT22;5977;51.972;7.640;2023-05-10T09:59:29;20.80;87.10
11836;DHT22;5977;51.972;7.640;2023-05-10T10:01:58;20.60;88.00
11836;DHT22;5977;51.972;7.640;2023-05-10T10:04:27;20.50;88.40
11836;DHT22;5977;51.972;7.640;2023-05-10T10:06:59;20.60;88.60
11836;DHT22;5977;51.972;7.640;2023-05-10T10:09:29;20.70;88.10
11836;DHT22;5977;51.972;7.640;2023-05-10T10:11:57;20.80;87.20
11836;DHT22;5977;51.972;7.640;2023-05-10T10:14:26;20.80;86.40
11836;DHT22;5977;51.972;7.640;2023-05-10T10:16:56;20.80;86.30
11836;DHT22;5977;51.972;7.640;2023-05-10T10:19:32;20.80;86.50
11836;DHT22;5977;51.972;7.640;2023-05-10T10:22:00;20.80;86.70
11836;DHT22;5977;51.972;7.640;2023-05-10T10:24:30;20.90;86.60
11836;DHT22;5977;51.972;7.640;2023-05-10T10:27:04;20.90;86.40
11836;DHT22;5977;51.972;7.640;2023-05-10T10:29:39;20.90;86.30
11836;DHT22;5977;51.972;7.640;2023-05-10T10:32:12;21.00;86.50
11836;DHT22;5977;51.972;7.640;2023-05-10T10:34:47;21.10;86.20
11836;DHT22;5977;51.972;7.640;2023-05-10T10:37:15;21.30;84.80
11836;DHT22;5977;51.972;7.640;2023-05-10T10:39:44;21.50;84.00
11836;DHT22;5977;51.972;7.640;2023-05-10T10:42:43;21.70;83.10
11836;DHT22;5977;51.972;7.640;2023-05-10T10:45:12;21.40;81.50
11836;DHT22;5977;51.972;7.640;2023-05-10T10:47:41;21.50;82.50
11836;DHT22;5977;51.972;7.640;2023-05-10T10:50:10;21.50;81.30
11836;DHT22;5977;51.972;7.640;2023-05-10T10:52:40;21.70;81.90
11836;DHT22;5977;51.972;7.640;2023-05-10T10:55:11;21.70;81.90
11836;DHT22;5977;51.972;7.640;2023-05-10T10:57:45;21.60;80.40
11836;DHT22;5977;51.972;7.640;2023-05-10T11:00:24;21.60;80.90
11836;DHT22;5977;51.972;7.640;2023-05-10T11:02:54;21.40;82.00
11836;DHT22;5977;51.972;7.640;2023-05-10T11:05:39;21.30;82.20
11836;DHT22;5977;51.972;7.640;2023-05-10T11:08:14;21.20;82.30
11836;DHT22;5977;51.972;7.640;2023-05-10T11:11:02;21.30;82.80
11836;DHT22;5977;51.972;7.640;2023-05-10T11:13:32;21.40;82.80
11836;DHT22;5977;51.972;7.640;2023-05-10T11:16:17;21.60;81.90
11836;DHT22;5977;51.972;7.640;2023-05-10T11:18:53;21.70;80.50
11836;DHT22;5977;51.972;7.640;2023-05-10T11:21:21;21.80;80.00
11836;DHT22;5977;51.972;7.640;2023-05-10T11:23:51;21.70;79.70
11836;DHT22;5977;51.972;7.640;2023-05-10T11:26:20;21.70;79.70
11836;DHT22;5977;51.972;7.640;2023-05-10T11:28:53;21.60;80.10
11836;DHT22;5977;51.972;7.640;2023-05-10T11:31:22;21.50;81.30
11836;DHT22;5977;51.972;7.640;2023-05-10T11:33:54;21.30;80.50
11836;DHT22;5977;51.972;7.640;2023-05-10T11:36:31;21.20;81.20
11836;DHT22;5977;51.972;7.640;2023-05-10T11:39:00;21.20;81.20
11836;DHT22;5977;51.972;7.640;2023-05-10T11:41:30;21.10;80.60
11836;DHT22;5977;51.972;7.640;2023-05-10T11:43:58;20.90;81.60
11836;DHT22;5977;51.972;7.640;2023-05-10T11:46:27;20.80;83.20
11836;DHT22;5977;51.972;7.640;2023-05-10T11:48:59;20.80;83.10
11836;DHT22;5977;51.972;7.640;2023-05-10T11:51:28;20.90;83.30
11836;DHT22;5977;51.972;7.640;2023-05-10T11:53:57;20.90;83.10
11836;DHT22;5977;51.972;7.640;2023-05-10T11:56:24;21.10;83.10
11836;DHT22;5977;51.972;7.640;2023-05-10T11:58:56;21.20;83.20
11836;DHT22;5977;51.972;7.640;2023-05-10T12:01:25;21.20;82.90
11836;DHT22;5977;51.972;7.640;2023-05-10T12:03:56;21.40;83.30
11836;DHT22;5977;51.972;7.640;2023-05-10T12:06:27;21.40;84.00
11836;DHT22;5977;51.972;7.640;2023-05-10T12:08:55;21.40;82.80
11836;DHT22;5977;51.972;7.640;2023-05-10T12:11:25;21.50;82.90
11836;DHT22;5977;51.972;7.640;2023-05-10T12:13:55;21.50;82.20
11836;DHT22;5977;51.972;7.640;2023-05-10T12:16:25;21.50;81.60
11836;DHT22;5977;51.972;7.640;2023-05-10T12:18:57;21.50;81.30
11836;DHT22;5977;51.972;7.640;2023-05-10T12:21:28;21.50;81.60
11836;DHT22;5977;51.972;7.640;2023-05-10T12:24:00;21.40;82.00
11836;DHT22;5977;51.972;7.640;2023-05-10T12:26:28;21.30;82.40
11836;DHT22;5977;51.972;7.640;2023-05-10T12:31:54;21.20;81.80
11836;DHT22;5977;51.972;7.640;2023-05-10T12:34:26;21.20;82.20
11836;DHT22;5977;51.972;7.640;2023-05-10T12:36:54;21.20;82.80
11836;DHT22;5977;51.972;7.640;2023-05-10T12:39:26;21.10;82.90
11836;DHT22;5977;51.972;7.640;2023-05-10T12:41:53;21.20;82.00
11836;DHT22;5977;51.972;7.640;2023-05-10T12:44:21;21.20;81.00
11836;DHT22;5977;51.972;7.640;2023-05-10T12:46:49;21.20;81.20
11836;DHT22;5977;51.972;7.640;2023-05-10T12:49:18;21.20;81.40
11836;DHT22;5977;51.972;7.640;2023-05-10T12:51:46;21.20;81.30
11836;DHT22;5977;51.972;7.640;2023-05-10T12:54:14;21.20;80.00
11836;DHT22;5977;51.972;7.640;2023-05-10T12:56:43;21.10;80.30
11836;DHT22;5977;51.972;7.640;2023-05-10T12:59:11;21.10;80.30
11836;DHT22;5977;51.972;7.640;2023-05-10T13:01:38;21.20;80.70
11836;DHT22;5977;51.972;7.640;2023-05-10T13:04:07;21.30;80.60
11836;DHT22;5977;51.972;7.640;2023-05-10T13:06:36;21.30;80.60
11836;DHT22;5977;51.972;7.640;2023-05-10T13:09:04;21.20;79.60
11836;DHT22;5977;51.972;7.640;2023-05-10T13:11:32;21.30;79.90
11836;DHT22;5977;51.972;7.640;2023-05-10T13:14:00;21.40;80.00
11836;DHT22;5977;51.972;7.640;2023-05-10T13:16:29;21.30;79.40
11836;DHT22;5977;51.972;7.640;2023-05-10T13:18:57;21.30;79.40
11836;DHT22;5977;51.972;7.640;2023-05-10T13:21:25;21.20;79.10
11836;DHT22;5977;51.972;7.640;2023-05-10T13:23:55;21.20;79.80
11836;DHT22;5977;51.972;7.640;2023-05-10T13:26:23;21.10;80.20
11836;DHT22;5977;51.972;7.640;2023-05-10T13:28:52;21.00;80.30
11836;DHT22;5977;51.972;7.640;2023-05-10T13:31:22;20.90;80.10
11836;DHT22;5977;51.972;7.640;2023-05-10T13:33:50;20.90;80.30
11836;DHT22;5977;51.972;7.640;2023-05-10T13:36:18;20.90;80.70
11836;DHT22;5977;51.972;7.640;2023-05-10T13:38:49;20.90;81.30
11836;DHT22;5977;51.972;7.640;2023-05-10T13:41:18;20.70;81.20
11836;DHT22;5977;51.972;7.640;2023-05-10T13:43:46;20.60;81.80
11836;DHT22;5977;51.972;7.640;2023-05-10T13:46:15;20.50;83.00
11836;DHT22;5977;51.972;7.640;2023-05-10T13:48:43;20.50;83.50
11836;DHT22;5977;51.972;7.640;2023-05-10T13:51:11;20.40;83.60
11836;DHT22;5977;51.972;7.640;2023-05-10T13:53:39;20.40;84.30
11836;DHT22;5977;51.972;7.640;2023-05-10T13:56:07;20.40;84.90
11836;DHT22;5977;51.972;7.640;2023-05-10T13:58:36;20.50;85.00
11836;DHT22;5977;51.972;7.640;2023-05-10T14:01:04;20.50;85.00
11836;DHT22;5977;51.972;7.640;2023-05-10T14:03:32;20.50;85.70
11836;DHT22;5977;51.972;7.640;2023-05-10T14:06:00;20.50;85.50
11836;DHT22;5977;51.972;7.640;2023-05-10T14:08:28;20.80;85.90
11836;DHT22;5977;51.972;7.640;2023-05-10T14:10:56;20.70;86.40
11836;DHT22;5977;51.972;7.640;2023-05-10T14:13:24;20.70;86.70
11836;DHT22;5977;51.972;7.640;2023-05-10T14:15:54;20.70;86.60
11836;DHT22;5977;51.972;7.640;2023-05-10T14:18:22;20.70;85.90
11836;DHT22;5977;51.972;7.640;2023-05-10T14:20:50;20.70;84.60
11836;DHT22;5977;51.972;7.640;2023-05-10T14:23:18;20.60;84.10
11836;DHT22;5977;51.972;7.640;2023-05-10T14:25:50;20.50;85.00
11836;DHT22;5977;51.972;7.640;2023-05-10T14:28:18;20.40;84.50
11836;DHT22;5977;51.972;7.640;2023-05-10T14:30:47;20.20;84.90
11836;DHT22;5977;51.972;7.640;2023-05-10T14:33:17;20.30;84.70
11836;DHT22;5977;51.972;7.640;2023-05-10T14:35:45;20.20;84.50
11836;DHT22;5977;51.972;7.640;2023-05-10T14:38:14;20.30;84.50
11836;DHT22;5977;51.972;7.640;2023-05-10T14:40:42;20.20;84.60
11836;DHT22;5977;51.972;7.640;2023-05-10T14:43:10;20.30;84.60
11836;DHT22;5977;51.972;7.640;2023-05-10T14:45:38;20.50;84.20
11836;DHT22;5977;51.972;7.640;2023-05-10T14:48:07;20.60;83.70
11836;DHT22;5977;51.972;7.640;2023-05-10T14:50:40;20.70;83.20
11836;DHT22;5977;51.972;7.640;2023-05-10T14:53:07;20.70;83.00
11836;DHT22;5977;51.972;7.640;2023-05-10T14:55:35;20.60;82.80
11836;DHT22;5977;51.972;7.640;2023-05-10T14:58:05;20.60;82.80
11836;DHT22;5977;51.972;7.640;2023-05-10T15:00:33;20.50;82.40
11836;DHT22;5977;51.972;7.640;2023-05-10T15:03:01;20.60;82.50
11836;DHT22;5977;51.972;7.640;2023-05-10T15:05:30;20.60;82.80
11836;DHT22;5977;51.972;7.640;2023-05-10T15:08:00;20.60;82.50
11836;DHT22;5977;51.972;7.640;2023-05-10T15:10:28;20.60;82.50
11836;DHT22;5977;51.972;7.640;2023-05-10T15:12:59;20.60;82.70
11836;DHT22;5977;51.972;7.640;2023-05-10T15:15:27;20.60;83.00
11836;DHT22;5977;51.972;7.640;2023-05-10T15:17:55;20.80;82.30
11836;DHT22;5977;51.972;7.640;2023-05-10T15:20:23;20.70;82.10
11836;DHT22;5977;51.972;7.640;2023-05-10T15:22:51;20.80;82.00
11836;DHT22;5977;51.972;7.640;2023-05-10T15:25:21;20.80;81.80
11836;DHT22;5977;51.972;7.640;2023-05-10T15:27:50;20.80;81.60
11836;DHT22;5977;51.972;7.640;2023-05-10T15:30:18;20.80;81.10
11836;DHT22;5977;51.972;7.640;2023-05-10T15:32:45;20.90;80.80
11836;DHT22;5977;51.972;7.640;2023-05-10T15:35:13;20.90;79.50
11836;DHT22;5977;51.972;7.640;2023-05-10T15:37:42;20.90;80.30
11836;DHT22;5977;51.972;7.640;2023-05-10T15:40:10;20.90;80.00
11836;DHT22;5977;51.972;7.640;2023-05-10T15:42:40;20.90;79.90
11836;DHT22;5977;51.972;7.640;2023-05-10T15:45:09;20.90;81.00
11836;DHT22;5977;51.972;7.640;2023-05-10T15:47:37;20.90;79.40
11836;DHT22;5977;51.972;7.640;2023-05-10T15:50:07;21.00;78.80
11836;DHT22;5977;51.972;7.640;2023-05-10T15:52:35;21.00;78.20
11836;DHT22;5977;51.972;7.640;2023-05-10T15:55:04;21.10;78.30
11836;DHT22;5977;51.972;7.640;2023-05-10T15:57:42;21.10;77.70
11836;DHT22;5977;51.972;7.640;2023-05-10T16:00:12;21.00;78.20
11836;DHT22;5977;51.972;7.640;2023-05-10T16:02:40;20.90;78.20